Time;durP1;ratioP1;P1;durP2;ratioP2;P2;SDS_P1;SDS_P2;PMS_P1;PMS_P2;Temp;Humidity;BMP_temperature;BMP_pressure;BME280_temperature;BME280_humidity;BME280_pressure;Samples;Min_cycle;Max_cycle;Signal;HPM_P1;HPM_P2
2022/08/25 00:00:06;;;;;;;9.35;8.40;;;;;;;22.27;80.49;101493.19;4787302;30;20050;-61
2022/08/25 00:02:31;;;;;;;9.18;8.27;;;;;;;22.32;80.16;101492.97;4771280;30;20377;-58
2022/08/25 00:04:56;;;;;;;8.57;7.73;;;;;;;22.27;80.75;101492.34;4787465;30;20039;-58
2022/08/25 00:07:21;;;;;;;8.87;7.73;;;;;;;22.25;80.85;101488.88;4787426;30;20293;-62
2022/08/25 00:09:47;;;;;;;9.27;8.30;;;;;;;22.19;80.88;101482.91;4787248;30;20300;-59
2022/08/25 00:12:12;;;;;;;9.60;8.60;;;;;;;22.08;81.60;101489.75;4787113;30;20287;-59
2022/08/25 00:14:38;;;;;;;10.18;9.15;;;;;;;22.11;81.33;101494.94;4786872;30;20046;-62
2022/08/25 00:17:04;;;;;;;10.27;9.07;;;;;;;21.94;82.68;101500.22;4786999;30;20131;-58
2022/08/25 00:19:33;;;;;;;12.13;10.02;;;;;;;21.97;82.17;101494.75;4787064;30;20050;-62
2022/08/25 00:22:00;;;;;;;11.38;9.10;;;;;;;21.95;82.23;101483.28;4786698;30;20118;-60
2022/08/25 00:24:26;;;;;;;10.40;9.30;;;;;;;21.93;82.25;101495.81;4786737;30;20043;-58
2022/08/25 00:26:54;;;;;;;9.93;8.93;;;;;;;21.93;82.58;101493.16;4786813;30;20122;-63
2022/08/25 00:29:20;;;;;;;10.07;8.50;;;;;;;21.92;82.62;101492.28;4786852;30;20050;-59
2022/08/25 00:31:46;;;;;;;9.55;8.25;;;;;;;21.91;82.57;101492.38;4786793;30;20047;-59
2022/08/25 00:34:18;;;;;;;10.73;8.90;;;;;;;21.84;82.46;101494.47;4786981;30;20039;-61
2022/08/25 00:36:44;;;;;;;10.25;8.75;;;;;;;21.79;82.88;101494.72;4786659;30;20439;-60
2022/08/25 00:39:10;;;;;;;10.93;8.93;;;;;;;21.73;83.21;101503.00;4786627;30;20108;-63
2022/08/25 00:41:38;;;;;;;8.85;8.05;;;;;;;21.69;82.92;101501.41;4786734;30;20131;-61
2022/08/25 00:44:07;;;;;;;11.05;8.43;;;;;;;21.56;83.69;101494.13;4786548;30;20047;-60
2022/08/25 00:46:38;;;;;;;9.43;8.52;;;;;;;21.64;83.56;101495.47;4786765;30;20055;-60
2022/08/25 00:49:08;;;;;;;8.85;8.05;;;;;;;21.58;83.43;101492.25;4786704;30;20047;-60
2022/08/25 00:51:50;;;;;;;9.82;8.80;;;;;;;21.61;82.85;101495.63;4786432;30;20200;-61
2022/08/25 00:54:26;;;;;;;10.43;8.93;;;;;;;21.50;83.81;101485.47;4786426;30;20066;-61
2022/08/25 00:56:52;;;;;;;10.13;9.05;;;;;;;21.47;84.28;101487.44;4786420;30;20484;-59
2022/08/25 00:59:21;;;;;;;9.95;8.68;;;;;;;21.47;84.02;101479.47;4786489;30;20424;-63
2022/08/25 01:01:49;;;;;;;9.65;8.75;;;;;;;21.48;84.13;101489.16;4786275;30;20139;-61
2022/08/25 01:04:15;;;;;;;9.75;8.75;;;;;;;21.45;84.04;101481.34;4786315;30;20104;-62
2022/08/25 01:06:45;;;;;;;10.38;9.23;;;;;;;21.42;84.00;101482.34;4786382;30;20522;-61
2022/08/25 01:09:12;;;;;;;11.57;9.25;;;;;;;21.41;84.21;101483.28;4786350;29;20095;-61
2022/08/25 01:11:39;;;;;;;9.25;8.35;;;;;;;21.43;84.05;101489.38;4789574;30;20035;-61
2022/08/25 01:14:05;;;;;;;10.20;9.20;;;;;;;21.38;84.07;101485.22;4790126;30;20506;-58
2022/08/25 01:16:36;;;;;;;12.52;9.27;;;;;;;21.31;84.15;101479.31;4790212;30;20889;-61
2022/08/25 01:19:02;;;;;;;11.45;9.50;;;;;;;21.28;84.31;101479.47;4789937;30;20039;-60
2022/08/25 01:21:30;;;;;;;10.25;9.15;;;;;;;21.25;84.37;101484.94;4790000;30;20039;-58
2022/08/25 01:23:58;;;;;;;9.52;8.63;;;;;;;21.20;84.56;101486.94;4789597;30;20381;-58
2022/08/25 01:26:30;;;;;;;9.50;8.55;;;;;;;21.17;84.91;101487.06;4789762;30;20043;-60
2022/08/25 01:31:41;;;;;;;10.05;9.13;;;;;;;21.07;84.99;101481.31;4789852;30;20439;-60
2022/08/25 01:34:08;;;;;;;11.15;9.95;;;;;;;21.00;85.37;101485.19;4789757;30;20438;-63
2022/08/25 01:36:34;;;;;;;11.27;10.02;;;;;;;20.90;85.75;101477.72;4789750;30;20054;-59
2022/08/25 01:39:00;;;;;;;10.50;9.40;;;;;;;20.80;86.09;101482.56;4789844;30;20040;-62
2022/08/25 01:41:28;;;;;;;13.00;9.93;;;;;;;20.78;85.89;101479.97;4789674;30;20464;-61
2022/08/25 01:43:53;;;;;;;10.75;9.65;;;;;;;20.78;85.98;101479.97;4789500;30;20088;-59
2022/08/25 01:46:18;;;;;;;10.73;9.73;;;;;;;20.75;86.15;101492.59;4789103;30;20039;-61
2022/08/25 01:48:44;;;;;;;12.65;10.13;;;;;;;20.74;85.80;101490.84;4789418;30;20054;-60
2022/08/25 01:51:09;;;;;;;10.57;9.60;;;;;;;20.73;85.85;101483.81;4789576;30;20067;-62
2022/08/25 01:53:34;;;;;;;10.35;9.15;;;;;;;20.68;85.70;101480.47;4789405;30;20051;-61
2022/08/25 01:56:10;;;;;;;10.27;9.33;;;;;;;20.59;86.02;101481.78;4789304;30;20043;-61
2022/08/25 01:58:38;;;;;;;10.48;9.45;;;;;;;20.58;86.19;101485.38;4789293;30;20293;-60
2022/08/25 02:01:07;;;;;;;9.93;8.93;;;;;;;20.47;86.29;101487.63;4789221;30;20058;-60
2022/08/25 02:03:37;;;;;;;11.25;9.32;;;;;;;20.40;86.76;101484.38;4789413;30;20035;-62
2022/08/25 02:06:02;;;;;;;10.07;9.00;;;;;;;20.29;87.23;101470.66;4789165;30;20523;-61
2022/08/25 02:08:28;;;;;;;10.32;9.15;;;;;;;20.38;86.46;101480.06;4789235;30;20043;-61
2022/08/25 02:10:54;;;;;;;10.65;9.63;;;;;;;20.38;86.75;101480.06;4789138;30;20465;-61
2022/08/25 02:13:20;;;;;;;10.32;9.23;;;;;;;20.44;86.37;101485.94;4789126;30;20035;-59
2022/08/25 02:15:50;;;;;;;12.43;9.77;;;;;;;20.43;85.64;101481.56;4789077;30;20067;-61
2022/08/25 02:18:16;;;;;;;11.77;9.43;;;;;;;20.38;86.13;101478.28;4789298;30;20366;-62
2022/08/25 02:20:42;;;;;;;12.73;8.48;;;;;;;20.42;85.88;101487.84;4789046;29;20184;-63
2022/08/25 02:23:09;;;;;;;11.23;9.43;;;;;;;20.35;85.90;101477.50;4787814;30;20201;-60
2022/08/25 02:25:36;;;;;;;10.63;9.32;;;;;;;20.30;86.04;101477.69;4788694;30;20039;-60
2022/08/25 02:28:02;;;;;;;10.55;9.48;;;;;;;20.29;85.75;101473.31;4788940;30;20054;-62
2022/08/25 02:30:28;;;;;;;10.50;9.50;;;;;;;20.24;86.06;101475.31;4788701;30;20055;-60
2022/08/25 02:32:53;;;;;;;12.90;9.60;;;;;;;20.30;85.81;101467.06;4788791;30;20047;-62
2022/08/25 02:35:18;;;;;;;10.88;9.77;;;;;;;20.30;85.34;101472.38;4789013;30;20042;-59
2022/08/25 02:37:44;;;;;;;14.35;9.52;;;;;;;20.29;84.91;101472.44;4788686;30;20066;-61
2022/08/25 02:40:09;;;;;;;10.23;9.15;;;;;;;20.28;84.73;101470.72;4788706;30;20035;-61
2022/08/25 02:42:35;;;;;;;11.90;8.98;;;;;;;20.22;85.06;101469.22;4788521;30;20053;-60
2022/08/25 02:45:00;;;;;;;10.48;9.23;;;;;;;20.27;84.55;101467.19;4788528;30;20046;-59
2022/08/25 02:47:26;;;;;;;11.25;9.73;;;;;;;20.26;83.84;101469.94;4788637;30;20046;-60
2022/08/25 02:49:51;;;;;;;12.55;9.25;;;;;;;20.24;83.82;101472.66;4788672;30;20039;-61
2022/08/25 02:52:17;;;;;;;12.23;9.38;;;;;;;20.11;83.77;101469.66;4788772;30;20065;-61
2022/08/25 02:54:43;;;;;;;11.15;9.32;;;;;;;20.17;83.46;101461.44;4788384;30;20494;-61
2022/08/25 02:57:10;;;;;;;10.75;9.50;;;;;;;20.20;83.52;101460.44;4788412;30;20050;-61
2022/08/25 02:59:36;;;;;;;11.88;8.85;;;;;;;20.14;82.92;101466.88;4788405;30;20073;-60
2022/08/25 03:02:02;;;;;;;10.30;8.57;;;;;;;20.13;82.88;101458.97;4788513;30;20031;-61
2022/08/25 03:04:28;;;;;;;10.80;9.70;;;;;;;20.05;82.80;101455.78;4788401;30;20338;-61
2022/08/25 03:06:53;;;;;;;10.43;9.40;;;;;;;20.08;82.02;101455.66;4788083;30;20173;-63
2022/08/25 03:09:19;;;;;;;13.05;9.35;;;;;;;20.07;82.01;101457.44;4787865;30;20125;-59
2022/08/25 03:11:46;;;;;;;11.02;9.43;;;;;;;20.01;82.14;101449.72;4788120;30;20047;-61
2022/08/25 03:14:11;;;;;;;9.88;8.98;;;;;;;20.04;81.95;101454.06;4788076;30;20774;-60
2022/08/25 03:16:37;;;;;;;10.30;9.13;;;;;;;20.05;82.07;101451.34;4788072;30;20039;-61
2022/08/25 03:19:02;;;;;;;13.02;9.00;;;;;;;20.07;81.84;101454.78;4788057;30;20075;-60
2022/08/25 03:21:28;;;;;;;12.23;9.05;;;;;;;20.01;82.39;101448.88;4787773;30;20137;-61
2022/08/25 03:23:54;;;;;;;10.50;8.90;;;;;;;19.98;81.92;101441.03;4787795;30;20035;-63
2022/08/25 03:29:04;;;;;;;13.00;9.32;;;;;;;19.90;81.61;101433.41;4787823;30;20057;-61
2022/08/25 03:31:32;;;;;;;13.15;9.48;;;;;;;19.92;81.89;101442.13;4787797;30;20039;-59
2022/08/25 03:33:59;;;;;;;10.73;9.45;;;;;;;19.99;79.57;101434.78;4787299;29;20054;-59
2022/08/25 03:36:26;;;;;;;12.23;9.82;;;;;;;20.10;78.81;101436.03;4787607;30;20051;-61
2022/08/25 03:38:52;;;;;;;12.18;9.52;;;;;;;20.15;78.04;101436.69;4787935;30;20043;-60
2022/08/25 03:41:27;;;;;;;13.32;9.07;;;;;;;20.22;77.94;101433.78;4787669;30;20073;-63
2022/08/25 03:43:54;;;;;;;12.25;9.25;;;;;;;20.30;76.57;101428.97;4787419;30;20453;-62
2022/08/25 03:46:31;;;;;;;12.95;9.32;;;;;;;20.29;76.53;101428.13;4787720;30;20139;-61
2022/08/25 03:49:01;;;;;;;13.98;9.15;;;;;;;20.29;76.19;101428.13;4787395;30;20165;-62
2022/08/25 03:51:30;;;;;;;15.40;9.73;;;;;;;20.28;75.50;101426.38;4787331;30;20051;-60
2022/08/25 03:53:56;;;;;;;11.05;9.65;;;;;;;20.29;75.80;101422.81;4787330;30;20154;-60
2022/08/25 03:56:22;;;;;;;11.57;9.23;;;;;;;20.29;75.47;101420.13;4787403;30;20039;-62
2022/08/25 03:58:47;;;;;;;11.90;8.88;;;;;;;20.29;75.38;101422.81;4787375;30;20043;-59
2022/08/25 04:01:14;;;;;;;11.13;9.52;;;;;;;20.28;74.89;101428.19;4787171;30;20051;-59
2022/08/25 04:03:39;;;;;;;12.75;9.40;;;;;;;20.21;74.32;101413.47;4787076;30;20039;-61
2022/08/25 04:06:06;;;;;;;10.93;9.07;;;;;;;20.26;74.52;101411.47;4786912;30;20448;-60
2022/08/25 04:08:32;;;;;;;11.43;8.73;;;;;;;20.27;74.08;101414.03;4787256;30;20043;-60
2022/08/25 04:10:57;;;;;;;13.82;9.23;;;;;;;20.32;73.73;101404.06;4787224;30;20343;-60
2022/08/25 04:13:22;;;;;;;11.70;9.32;;;;;;;20.22;74.61;101410.72;4786835;30;20039;-59
2022/08/25 04:15:48;;;;;;;14.25;9.52;;;;;;;20.29;73.45;101412.16;4787113;30;20163;-60
2022/08/25 04:18:13;;;;;;;12.13;9.52;;;;;;;20.22;73.54;101410.72;4787008;30;20046;-59
2022/08/25 04:20:42;;;;;;;17.42;9.30;;;;;;;20.29;72.76;101422.81;4786864;30;20461;-62
2022/08/25 04:23:09;;;;;;;10.93;9.50;;;;;;;20.26;72.77;101425.59;4786947;30;20043;-59
2022/08/25 04:25:41;;;;;;;15.65;10.13;;;;;;;20.26;72.46;101417.63;4786812;30;20071;-62
2022/08/25 04:28:07;;;;;;;11.85;9.20;;;;;;;20.26;72.88;101422.94;4786773;30;20039;-61
2022/08/25 04:30:33;;;;;;;12.68;9.00;;;;;;;20.28;72.48;101413.09;4786779;30;20039;-60
2022/08/25 04:32:58;;;;;;;12.73;8.95;;;;;;;20.29;72.43;101411.31;4786667;30;20440;-61
2022/08/25 04:35:23;;;;;;;11.73;9.27;;;;;;;20.29;72.37;101404.19;4786662;30;20039;-60
2022/08/25 04:37:49;;;;;;;12.85;9.05;;;;;;;20.25;71.69;101404.41;4786542;30;20281;-59
2022/08/25 04:40:14;;;;;;;11.40;8.43;;;;;;;20.28;71.39;101394.50;4786571;30;20047;-60
2022/08/25 04:42:39;;;;;;;10.18;8.02;;;;;;;20.26;71.38;101385.72;4786686;30;20443;-60
2022/08/25 04:45:05;;;;;;;11.38;8.10;;;;;;;20.26;71.85;101392.84;4785705;30;20138;-59
2022/08/25 04:47:34;;;;;;;10.32;7.88;;;;;;;20.25;71.08;101391.13;4786532;30;20169;-61
2022/08/25 04:50:00;;;;;;;15.50;7.45;;;;;;;20.27;70.01;101392.75;4786351;30;20465;-60
2022/08/25 04:52:25;;;;;;;10.43;7.70;;;;;;;20.25;70.13;101392.00;4786544;30;20066;-60
2022/08/25 04:54:50;;;;;;;8.82;6.55;;;;;;;20.28;69.81;101398.94;4786357;30;20069;-60
2022/08/25 04:57:16;;;;;;;8.73;7.00;;;;;;;20.29;69.36;101398.88;4786565;30;20138;-62
2022/08/25 04:59:41;;;;;;;8.07;7.00;;;;;;;20.29;69.32;101393.56;4786389;30;20293;-60
2022/08/25 05:02:06;;;;;;;10.30;6.77;;;;;;;20.26;68.95;101393.69;4786265;30;20289;-59
2022/08/25 05:04:34;;;;;;;11.52;6.60;;;;;;;20.27;68.42;101397.22;4786404;30;20309;-59
2022/08/25 05:07:00;;;;;;;7.55;6.15;;;;;;;20.29;68.22;101398.88;4786705;30;20078;-62
2022/08/25 05:09:26;;;;;;;9.75;6.38;;;;;;;20.32;67.97;101404.06;4786417;30;20179;-61
2022/08/25 05:11:52;;;;;;;8.68;6.65;;;;;;;20.30;68.27;101403.25;4786602;30;20043;-58
2022/08/25 05:14:21;;;;;;;7.45;5.88;;;;;;;20.30;68.82;101403.25;4786416;30;20040;-61
2022/08/25 05:16:46;;;;;;;11.48;6.40;;;;;;;20.32;68.34;101404.06;4786303;30;20043;-60
2022/08/25 05:19:11;;;;;;;10.55;6.20;;;;;;;20.36;67.77;101403.03;4786329;30;20413;-62
2022/08/25 05:21:37;;;;;;;9.45;6.35;;;;;;;20.39;67.80;101416.19;4786399;30;20098;-60
2022/08/25 05:24:02;;;;;;;10.38;5.90;;;;;;;20.43;68.32;101424.91;4786315;30;20574;-60
2022/08/25 05:26:30;;;;;;;8.82;5.45;;;;;;;20.50;66.68;101419.22;4786323;30;20116;-58
2022/08/25 05:28:57;;;;;;;8.38;5.55;;;;;;;20.65;66.50;101424.75;4786301;30;20050;-60
2022/08/25 05:31:24;;;;;;;9.75;5.35;;;;;;;20.70;65.74;101428.09;4785991;30;20039;-60
2022/08/25 05:33:51;;;;;;;10.52;5.43;;;;;;;20.76;64.72;101428.69;4785961;30;20511;-59
2022/08/25 05:36:18;;;;;;;9.43;5.97;;;;;;;20.82;65.16;101428.38;4786298;30;20031;-60
2022/08/25 05:38:43;;;;;;;9.30;5.60;;;;;;;20.85;64.55;101424.72;4786366;30;20074;-60
2022/08/25 05:41:12;;;;;;;6.80;4.93;;;;;;;20.95;64.73;101427.81;4786164;30;20070;-62
2022/08/25 05:43:39;;;;;;;9.23;5.03;;;;;;;20.99;64.05;101422.25;4786105;30;20039;-60
2022/08/25 05:46:05;;;;;;;11.32;5.20;;;;;;;21.06;63.38;101425.50;4785913;30;20039;-58
2022/08/25 05:48:30;;;;;;;9.15;5.18;;;;;;;21.14;62.44;101434.81;4786115;30;20437;-64
2022/08/25 05:50:58;;;;;;;8.55;5.00;;;;;;;21.19;62.75;101435.50;4786125;30;20050;-61
2022/08/25 05:53:25;;;;;;;9.30;4.47;;;;;;;21.21;61.95;101440.75;4785904;30;20388;-61
2022/08/25 05:55:51;;;;;;;8.13;4.78;;;;;;;21.22;62.63;101439.81;4785896;29;20458;-60
2022/08/25 05:58:17;;;;;;;11.85;5.40;;;;;;;21.22;62.60;101437.16;4789315;30;20047;-60
2022/08/25 06:00:43;;;;;;;7.25;5.03;;;;;;;21.23;61.96;101435.38;4789615;30;20444;-61
2022/08/25 06:03:08;;;;;;;10.05;4.72;;;;;;;21.25;61.81;101441.47;4789395;30;20043;-60
2022/08/25 06:05:33;;;;;;;9.23;4.90;;;;;;;21.28;61.82;101438.69;4789284;30;20100;-61
2022/08/25 06:07:59;;;;;;;8.07;4.55;;;;;;;21.33;61.80;101433.97;4788977;30;20043;-59
2022/08/25 06:10:25;;;;;;;8.02;5.00;;;;;;;21.38;61.82;101437.28;4789069;30;20122;-63
2022/08/25 06:12:50;;;;;;;7.60;4.75;;;;;;;21.45;61.14;101444.06;4788994;30;20043;-60
2022/08/25 06:15:21;;;;;;;12.23;4.88;;;;;;;21.47;60.97;101442.19;4788888;30;20522;-58
2022/08/25 06:17:48;;;;;;;14.63;5.30;;;;;;;21.52;60.93;101442.78;4788403;30;20045;-60
2022/08/25 06:20:16;;;;;;;14.70;4.90;;;;;;;21.59;60.94;101443.34;4789019;30;20058;-61
2022/08/25 06:22:41;;;;;;;10.18;4.93;;;;;;;21.62;60.40;101436.09;4788838;30;20126;-62
2022/08/25 06:25:08;;;;;;;7.97;4.53;;;;;;;21.71;60.04;101432.94;4788306;30;20139;-62
2022/08/25 06:27:35;;;;;;;10.70;4.88;;;;;;;22.09;58.07;101436.34;4788751;30;20055;-60
2022/08/25 06:30:03;;;;;;;10.85;4.82;;;;;;;22.23;57.43;101436.50;4788831;30;20381;-62
2022/08/25 06:32:38;;;;;;;8.73;4.85;;;;;;;22.16;58.33;101448.44;4788492;30;20043;-60
2022/08/25 06:35:05;;;;;;;14.95;5.78;;;;;;;22.12;57.73;101435.34;4770235;30;20040;-59
2022/08/25 06:37:31;;;;;;;9.45;4.88;;;;;;;22.11;57.85;101446.94;4770942;30;20047;-59
2022/08/25 06:39:56;;;;;;;9.85;4.65;;;;;;;22.07;57.94;101440.03;4770795;30;20043;-61
2022/08/25 06:42:22;;;;;;;7.47;4.70;;;;;;;22.10;58.14;101438.09;4771050;30;20061;-60
2022/08/25 06:44:47;;;;;;;7.47;5.53;;;;;;;22.14;57.57;101431.66;4770534;30;20308;-62
2022/08/25 06:47:14;;;;;;;10.65;4.72;;;;;;;22.16;57.41;101436.91;4770515;30;20108;-60
2022/08/25 06:49:41;;;;;;;6.82;4.43;;;;;;;22.23;57.58;101443.63;4770730;30;20039;-59
2022/08/25 06:52:06;;;;;;;9.50;4.63;;;;;;;22.26;57.55;101446.13;4770756;30;20036;-60
2022/08/25 06:54:32;;;;;;;9.85;4.70;;;;;;;22.22;56.90;101425.91;4770121;30;20159;-61
2022/08/25 06:56:57;;;;;;;8.07;5.05;;;;;;;22.34;56.76;101430.59;4770270;30;20478;-61
2022/08/25 06:59:22;;;;;;;9.27;4.90;;;;;;;22.45;56.57;101436.22;4782346;29;20043;-61
2022/08/25 07:01:47;;;;;;;7.65;4.85;;;;;;;22.52;56.18;101429.59;4787885;30;20277;-60
2022/08/25 07:04:13;;;;;;;10.07;4.47;;;;;;;22.48;56.07;101406.72;4788116;30;20042;-62
2022/08/25 07:06:38;;;;;;;11.07;4.88;;;;;;;22.62;55.53;101427.31;4788048;30;20618;-62
2022/08/25 07:09:06;;;;;;;9.45;4.50;;;;;;;22.71;55.19;101424.13;4787266;29;20057;-61
2022/08/25 07:11:33;;;;;;;9.23;4.35;;;;;;;22.75;54.81;101414.16;4787850;29;20204;-61
2022/08/25 07:14:03;;;;;;;7.70;4.63;;;;;;;22.84;54.96;101419.91;4788132;29;20035;-60
2022/08/25 07:16:30;;;;;;;9.43;4.43;;;;;;;22.95;54.09;101418.44;4787955;29;20039;-59
2022/08/25 07:18:56;;;;;;;11.15;4.45;;;;;;;22.96;54.56;101418.34;4788034;29;20043;-60
2022/08/25 07:21:23;;;;;;;9.68;4.35;;;;;;;22.99;54.72;101422.66;4787495;29;20099;-59
2022/08/25 07:23:48;;;;;;;8.95;3.95;;;;;;;23.00;54.58;101414.56;4787625;29;20040;-61
2022/08/25 07:26:17;;;;;;;9.38;4.50;;;;;;;23.07;54.31;101421.25;4787603;30;20053;-58
2022/08/25 07:28:43;;;;;;;9.77;4.25;;;;;;;23.12;54.48;101424.53;4787704;29;20051;-58
2022/08/25 07:31:09;;;;;;;8.75;4.20;;;;;;;23.18;54.52;101418.88;4787622;29;20241;-60
2022/08/25 07:33:35;;;;;;;5.78;4.30;;;;;;;23.25;53.52;101424.69;4787860;29;20046;-59
2022/08/25 07:36:00;;;;;;;8.70;4.13;;;;;;;23.33;53.93;101419.81;4787710;29;20031;-62
2022/08/25 07:38:26;;;;;;;7.25;3.97;;;;;;;23.37;53.11;101412.47;4787445;30;20043;-61
2022/08/25 07:40:53;;;;;;;11.57;4.13;;;;;;;23.44;53.47;101419.16;4787600;30;20043;-58
2022/08/25 07:43:20;;;;;;;8.60;4.07;;;;;;;23.48;53.80;101412.69;4787632;30;20054;-60
2022/08/25 07:45:46;;;;;;;10.57;3.97;;;;;;;23.51;54.07;101410.75;4786336;29;20126;-60
2022/08/25 07:48:12;;;;;;;7.25;4.00;;;;;;;23.54;54.80;101415.94;4786141;29;20566;-61
2022/08/25 07:50:44;;;;;;;5.50;3.38;;;;;;;23.63;53.87;101419.00;4786478;29;20732;-63
2022/08/25 07:53:10;;;;;;;7.25;3.85;;;;;;;23.70;53.82;101418.56;4786113;29;20039;-61
2022/08/25 07:55:36;;;;;;;10.73;4.38;;;;;;;23.78;53.01;101402.91;4785911;29;20048;-63
2022/08/25 07:58:05;;;;;;;6.22;3.92;;;;;;;23.85;53.17;101409.63;4786316;29;20035;-61
2022/08/25 08:00:32;;;;;;;8.10;4.10;;;;;;;23.92;52.61;101410.97;4786125;29;20449;-63
2022/08/25 08:03:01;;;;;;;12.02;4.20;;;;;;;24.01;52.60;101409.56;4786068;29;20043;-62
2022/08/25 08:05:27;;;;;;;7.55;3.83;;;;;;;24.11;52.35;101404.50;4785376;29;20435;-62
2022/08/25 08:07:54;;;;;;;9.38;3.70;;;;;;;24.17;52.34;101405.00;4785823;29;20047;-60
2022/08/25 08:10:20;;;;;;;6.20;3.58;;;;;;;24.31;52.82;101398.81;4785826;29;20035;-61
2022/08/25 08:12:45;;;;;;;6.85;3.63;;;;;;;24.37;51.95;101400.28;4786081;29;20112;-63
2022/08/25 08:15:11;;;;;;;5.88;3.83;;;;;;;24.44;51.53;101398.91;4785467;30;20070;-61
2022/08/25 08:17:38;;;;;;;8.10;3.55;;;;;;;24.53;51.27;101399.22;4785891;29;20045;-61
2022/08/25 08:20:07;;;;;;;7.38;3.78;;;;;;;24.56;51.28;101401.72;4786801;29;20057;-59
2022/08/25 08:22:33;;;;;;;7.07;3.63;;;;;;;24.62;50.94;101398.63;4786850;29;20075;-59
2022/08/25 08:24:59;;;;;;;9.00;3.50;;;;;;;24.72;50.66;101403.41;4787030;29;20476;-60
2022/08/25 08:27:25;;;;;;;7.97;3.60;;;;;;;24.80;49.87;101401.94;4787050;29;20046;-60
2022/08/25 08:29:51;;;;;;;9.03;3.90;;;;;;;24.85;48.94;101404.34;4786889;30;20154;-61
2022/08/25 08:32:16;;;;;;;5.95;3.80;;;;;;;24.94;49.06;101401.09;4786647;29;20284;-59
2022/08/25 08:34:42;;;;;;;7.38;3.50;;;;;;;25.05;49.93;101403.94;4786785;29;20485;-61
2022/08/25 08:37:08;;;;;;;10.05;3.65;;;;;;;25.18;50.05;101398.63;4786850;29;20038;-60
2022/08/25 08:39:35;;;;;;;8.07;3.80;;;;;;;25.21;49.12;101399.31;4786872;29;20078;-60
2022/08/25 08:42:35;;;;;;;9.63;3.25;;;;;;;25.33;49.29;101397.63;4786634;29;20046;-61
2022/08/25 08:45:14;;;;;;;6.63;3.08;;;;;;;25.42;47.95;101393.50;4774519;29;20119;-59
2022/08/25 08:48:00;;;;;;;9.32;3.53;;;;;;;25.51;48.69;101391.03;4786308;29;20039;-60
2022/08/25 08:50:43;;;;;;;6.28;3.28;;;;;;;25.67;47.98;101396.25;4785819;30;20039;-61
2022/08/25 08:53:18;;;;;;;5.78;3.35;;;;;;;25.78;46.55;101398.22;4786076;30;20035;-61
2022/08/25 08:55:54;;;;;;;7.57;3.38;;;;;;;25.84;46.50;101393.28;4786313;30;20051;-61
2022/08/25 08:58:19;;;;;;;6.53;3.53;;;;;;;25.90;45.47;101392.88;4786064;30;20055;-62
2022/08/25 09:00:54;;;;;;;6.75;3.50;;;;;;;26.05;46.16;101384.72;4786276;30;20040;-62
2022/08/25 09:03:58;;;;;;;6.43;3.42;;;;;;;26.44;47.02;101386.47;4786309;30;20056;-62
2022/08/25 09:06:32;;;;;;;9.05;3.15;;;;;;;27.58;43.02;101381.59;4748286;30;20047;-51
2022/08/25 09:09:02;;;;;;;9.82;4.20;;;;;;;28.17;41.10;101391.41;4783361;30;20043;-62
2022/08/25 09:11:45;;;;;;;8.10;3.03;;;;;;;28.41;40.30;101393.03;4786278;30;20104;-62
2022/08/25 09:14:19;;;;;;;7.20;3.08;;;;;;;28.22;40.96;101391.94;4786334;30;20042;-61
2022/08/25 09:16:56;;;;;;;6.57;3.40;;;;;;;28.00;41.54;101392.72;4786206;30;20441;-65
2022/08/25 09:19:36;;;;;;;6.50;3.33;;;;;;;27.98;40.68;101384.78;4786257;30;20046;-64
2022/08/25 09:22:38;;;;;;;4.70;3.30;;;;;;;28.00;42.75;101380.13;4786317;30;20047;-62
2022/08/25 09:25:06;;;;;;;9.77;3.20;;;;;;;28.08;40.58;101383.06;4786130;30;20050;-62
2022/08/25 09:27:40;;;;;;;5.28;3.10;;;;;;;28.26;40.21;101378.09;4786328;30;20039;-61
2022/08/25 09:30:17;;;;;;;6.82;2.92;;;;;;;28.44;39.21;101381.16;4786220;30;20039;-64
2022/08/25 09:33:00;;;;;;;4.72;2.80;;;;;;;28.60;39.18;101381.66;4789331;30;20118;-63
2022/08/25 09:35:29;;;;;;;3.10;2.22;;;;;;;28.72;37.79;101385.22;4789673;30;20054;-65
2022/08/25 09:38:00;;;;;;;5.18;2.70;;;;;;;28.96;37.70;101391.31;4789811;30;20111;-62
2022/08/25 09:40:28;;;;;;;4.57;2.78;;;;;;;29.10;37.29;101372.16;4789899;30;20039;-62
2022/08/25 09:42:57;;;;;;;5.10;2.60;;;;;;;29.24;37.09;101376.41;4789665;30;20039;-64
2022/08/25 09:45:30;;;;;;;4.97;2.70;;;;;;;29.47;37.20;101370.94;4789617;30;20112;-61
2022/08/25 09:47:55;;;;;;;8.52;2.70;;;;;;;29.67;36.28;101370.97;4789547;30;20051;-62
2022/08/25 09:50:20;;;;;;;2.83;2.20;;;;;;;29.83;35.35;101358.84;4789310;30;20050;-62
2022/08/25 09:52:46;;;;;;;5.10;2.90;;;;;;;29.95;34.54;101372.16;4789645;30;20754;-61
2022/08/25 09:55:14;;;;;;;2.78;2.20;;;;;;;30.03;33.62;101356.19;4789351;30;20304;-62
2022/08/25 09:57:42;;;;;;;3.85;2.03;;;;;;;30.18;31.54;101350.41;4789366;30;20035;-63
2022/08/25 10:00:21;;;;;;;3.95;2.15;;;;;;;30.28;34.55;101349.50;4789326;30;20058;-64
2022/08/25 10:03:17;;;;;;;3.58;2.33;;;;;;;30.43;33.99;101344.56;4789409;30;20035;-63
2022/08/25 10:05:56;;;;;;;5.57;2.30;;;;;;;30.56;34.38;101334.41;4789154;30;20185;-62
2022/08/25 10:08:51;;;;;;;5.88;2.45;;;;;;;30.57;32.58;101336.13;4788826;30;20472;-62
2022/08/25 10:11:32;;;;;;;3.08;2.10;;;;;;;30.86;32.27;101328.06;4789139;30;20039;-62
2022/08/25 10:14:27;;;;;;;2.40;2.17;;;;;;;30.88;31.50;101333.34;4788949;30;20035;-63
2022/08/25 10:17:11;;;;;;;3.55;2.15;;;;;;;31.14;33.25;101329.16;4789263;30;20147;-63
2022/08/25 10:19:37;;;;;;;3.03;2.13;;;;;;;31.27;30.60;101326.16;4789011;30;20049;-64
2022/08/25 10:22:11;;;;;;;6.30;2.22;;;;;;;31.46;31.48;101320.72;4788753;30;20452;-64
2022/08/25 10:24:38;;;;;;;7.97;2.50;;;;;;;31.51;30.50;101309.47;4788615;30;20100;-62
2022/08/25 10:27:39;;;;;;;5.55;2.60;;;;;;;31.58;31.62;101321.41;4788951;30;20054;-63
2022/08/25 10:30:18;;;;;;;5.50;2.40;;;;;;;31.54;31.13;101311.88;4788498;30;20474;-61
2022/08/25 10:33:14;;;;;;;4.65;2.50;;;;;;;31.39;31.16;101312.31;4788785;30;20031;-62
2022/08/25 10:35:44;;;;;;;6.93;2.40;;;;;;;31.04;31.29;101291.22;4788848;30;20073;-61
2022/08/25 10:38:29;;;;;;;3.97;2.40;;;;;;;30.92;32.30;101300.50;4788713;30;20035;-62
2022/08/25 10:41:01;;;;;;;5.03;2.42;;;;;;;30.86;32.79;101302.88;4788200;30;20524;-62
2022/08/25 10:43:34;;;;;;;4.95;2.67;;;;;;;30.75;32.04;101298.47;4787620;29;20074;-63
2022/08/25 10:46:19;;;;;;;2.75;2.00;;;;;;;30.82;32.09;101288.81;4788632;30;20448;-61
2022/08/25 10:48:53;;;;;;;2.38;2.08;;;;;;;30.77;31.42;101291.09;4788435;30;20039;-62
2022/08/25 10:51:45;;;;;;;6.32;3.05;;;;;;;30.87;33.39;101294.63;4788279;30;20522;-64
2022/08/25 10:54:27;;;;;;;5.35;3.05;;;;;;;31.00;34.02;101287.09;4788081;30;20422;-62
2022/08/25 10:57:07;;;;;;;3.20;2.88;;;;;;;31.00;34.40;101289.81;4788407;30;20043;-61
2022/08/25 10:59:54;;;;;;;4.93;2.88;;;;;;;31.23;34.15;101279.59;4788401;30;20130;-62
2022/08/25 11:02:34;;;;;;;4.10;2.72;;;;;;;31.43;34.03;101277.72;4788420;30;20050;-61
2022/08/25 11:05:18;;;;;;;7.43;2.70;;;;;;;31.59;33.90;101274.41;4788453;30;20046;-61
2022/08/25 11:07:48;;;;;;;8.20;2.90;;;;;;;31.63;32.09;101281.25;4788013;30;20036;-64
2022/08/25 11:10:23;;;;;;;4.78;3.03;;;;;;;31.93;32.04;101272.06;4788228;30;20043;-61
2022/08/25 11:13:05;;;;;;;4.20;2.47;;;;;;;32.22;32.57;101274.66;4788098;30;20054;-63
2022/08/25 11:15:39;;;;;;;6.30;2.83;;;;;;;32.41;31.41;101270.00;4788430;30;20212;-63
2022/08/25 11:18:11;;;;;;;4.22;2.53;;;;;;;32.57;31.66;101263.91;4787975;30;20035;-62
2022/08/25 11:20:48;;;;;;;5.75;2.60;;;;;;;32.76;31.82;101266.50;4788169;30;20387;-61
2022/08/25 11:23:36;;;;;;;5.38;2.72;;;;;;;32.92;31.05;101254.13;4787988;30;20054;-62
2022/08/25 11:26:09;;;;;;;5.78;2.40;;;;;;;32.92;29.18;101256.81;4787801;30;20046;-64
2022/08/25 11:28:48;;;;;;;5.00;2.50;;;;;;;32.83;29.96;101254.06;4788002;30;20050;-63
2022/08/25 11:31:15;;;;;;;3.08;2.50;;;;;;;32.84;29.11;101253.06;4787998;30;20070;-63
2022/08/25 11:33:42;;;;;;;3.95;2.47;;;;;;;32.86;29.18;101250.19;4787816;30;20054;-62
2022/08/25 11:36:19;;;;;;;5.53;2.42;;;;;;;32.76;29.70;101255.66;4787649;30;20049;-60